Lyon, Mississippi
Current Conditions -  °F | °C
As of 8:15 AM on Thursday 27 Nov 2014 (Local Time) from KCKM Reporting Station
Overcast Overcast  
Wind Chill: 29°   Ceiling: 3100
Heat Index: 37°   Visibility: 10mi
Dew Point: 30°   Wind: 13mph
Humidity: 75%   Direction: 340°NNW
Pressure: 30.5"   Gusts: NA
Location:  34.22°N, 90.54°W
Report Text: KCKM 271415Z AUTO 34011KT 10SM OVC031 03/M01 A3050 RMK AO1
Loading
Personal Weather Stations






























Interactive Weather Map New forecast layout! Learn more

10-Day Weather Forecast

Advertisements
Track Severe Weather on mobile